createdAt,value
2019-01-27T00:04:06.478Z,98721.00
2019-01-27T00:06:36.327Z,98719.00
2019-01-27T00:09:09.597Z,98715.00
2019-01-27T00:11:38.544Z,98714.00
2019-01-27T00:14:06.804Z,98704.00
2019-01-27T00:16:54.360Z,98759.00
2019-01-27T00:19:24.371Z,98685.00
2019-01-27T00:21:53.102Z,98684.00
2019-01-27T00:24:37.626Z,98531.00
2019-01-27T00:27:25.480Z,98503.00
2019-01-27T00:33:09.387Z,98440.00
2019-01-27T00:35:50.536Z,98652.00
2019-01-27T00:38:30.791Z,98418.00
2019-01-27T00:41:18.375Z,98626.00
2019-01-27T00:43:58.994Z,98398.00
2019-01-27T00:46:46.566Z,98621.00
2019-01-27T00:49:29.295Z,98415.00
2019-01-27T00:51:57.300Z,98603.00
2019-01-27T00:54:25.242Z,98604.00
2019-01-27T00:57:12.664Z,98418.00
2019-01-27T00:59:52.904Z,98711.00
2019-01-27T01:02:40.355Z,98349.00
2019-01-27T01:05:21.217Z,98687.00
2019-01-27T01:08:09.679Z,98384.00
2019-01-27T01:10:50.341Z,98514.00
2019-01-27T01:13:37.800Z,98666.00
2019-01-27T01:16:20.167Z,98475.00
2019-01-27T01:19:07.718Z,98345.00
2019-01-27T01:21:47.867Z,98542.00
2019-01-27T01:24:29.438Z,98548.00
2019-01-27T01:27:17.187Z,98357.00
2019-01-27T01:29:57.685Z,98525.00
2019-01-27T01:32:38.628Z,98515.00
2019-01-27T01:35:26.059Z,98519.00
2019-01-27T01:38:06.857Z,98240.00
2019-01-27T01:40:54.648Z,98400.00
2019-01-27T01:43:35.314Z,98414.00
2019-01-27T01:46:23.033Z,98207.00
2019-01-27T01:49:04.891Z,98557.00
2019-01-27T01:51:32.842Z,98482.00
2019-01-27T01:54:13.436Z,98475.00
2019-01-27T01:57:03.205Z,98559.00
2019-01-27T01:59:43.895Z,98227.00
2019-01-27T02:02:31.381Z,98442.00
2019-01-27T02:05:12.573Z,98445.00
2019-01-27T02:07:54.516Z,98435.00
2019-01-27T02:10:22.915Z,98432.00
2019-01-27T02:13:05.734Z,98428.00
2019-01-27T02:15:57.151Z,98410.00
2019-01-27T02:18:38.104Z,98336.00
2019-01-27T02:24:48.828Z,98392.00
2019-01-27T02:27:29.222Z,98242.00
2019-01-27T02:30:10.130Z,98299.00
2019-01-27T02:35:53.345Z,98241.00
2019-01-27T02:38:21.383Z,98355.00
2019-01-27T02:41:03.375Z,98216.00
2019-01-27T02:43:44.494Z,98354.00
2019-01-27T02:46:25.361Z,98336.00
2019-01-27T02:49:13.010Z,98259.00
2019-01-27T02:51:53.665Z,98318.00
2019-01-27T02:54:41.142Z,98335.00
2019-01-27T02:57:21.748Z,98325.00
2019-01-27T03:00:10.238Z,98330.00
2019-01-27T03:02:52.257Z,98304.00
2019-01-27T03:05:59.248Z,98052.00
2019-01-27T03:08:50.422Z,98304.00
2019-01-27T03:11:57.705Z,98131.00
2019-01-27T03:14:25.937Z,98282.00
2019-01-27T03:20:09.679Z,98275.00
2019-01-27T03:22:37.627Z,98264.00
2019-01-27T03:25:09.285Z,98258.00
2019-01-27T03:27:37.262Z,98253.00
2019-01-27T03:30:13.956Z,98238.00
2019-01-27T03:32:42.968Z,98230.00
2019-01-27T03:35:28.092Z,98252.00
2019-01-27T03:38:15.945Z,97999.00
2019-01-27T03:40:43.956Z,98233.00
2019-01-27T03:43:11.878Z,98232.00
2019-01-27T03:45:52.942Z,98049.00
2019-01-27T03:48:40.444Z,98220.00
2019-01-27T03:51:20.713Z,98099.00
2019-01-27T03:53:48.719Z,98213.00
2019-01-27T03:56:16.699Z,98194.00
2019-01-27T03:58:44.766Z,98201.00
2019-01-27T04:01:28.445Z,98095.00
2019-01-27T04:03:56.459Z,98202.00
2019-01-27T04:06:24.419Z,98191.00
2019-01-27T04:08:52.306Z,98177.00
2019-01-27T04:11:20.313Z,98159.00
2019-01-27T04:13:48.262Z,98169.00
2019-01-27T04:16:16.296Z,98173.00
2019-01-27T04:18:44.390Z,98170.00
2019-01-27T04:21:12.374Z,98165.00
2019-01-27T04:23:53.001Z,98061.00
2019-01-27T04:26:40.364Z,98149.00
2019-01-27T04:29:21.255Z,97929.00
2019-01-27T04:32:01.470Z,98147.00
2019-01-27T04:34:48.903Z,97934.00
2019-01-27T04:37:31.511Z,98137.00
2019-01-27T04:40:19.243Z,97939.00
2019-01-27T04:42:47.235Z,98128.00
2019-01-27T04:48:25.662Z,98121.00
2019-01-27T04:50:53.621Z,98116.00
2019-01-27T04:53:21.584Z,98111.00
2019-01-27T04:56:10.875Z,98117.00
2019-01-27T04:58:51.242Z,98124.00
2019-01-27T05:01:38.969Z,97919.00
2019-01-27T05:04:39.286Z,98111.00
2019-01-27T05:07:26.705Z,97847.00
2019-01-27T05:10:14.525Z,97891.00
2019-01-27T05:12:54.855Z,97907.00
2019-01-27T05:15:34.921Z,98102.00
2019-01-27T05:18:15.905Z,98101.00
2019-01-27T05:21:03.314Z,97934.00
2019-01-27T05:23:44.464Z,97893.00
2019-01-27T05:26:31.905Z,98088.00
2019-01-27T05:29:17.848Z,97817.00
2019-01-27T05:32:07.151Z,98095.00
2019-01-27T05:34:47.775Z,97859.00
2019-01-27T05:37:15.965Z,98074.00
2019-01-27T05:39:56.813Z,98056.00
2019-01-27T05:42:37.037Z,97986.00
2019-01-27T05:45:24.524Z,97805.00
2019-01-27T05:48:06.335Z,98054.00
2019-01-27T05:50:34.211Z,98053.00
2019-01-27T05:53:15.204Z,97837.00
2019-01-27T05:56:02.729Z,97855.00
2019-01-27T05:58:43.512Z,97826.00
2019-01-27T06:01:31.092Z,98115.00
2019-01-27T06:04:11.559Z,98012.00
2019-01-27T06:06:58.952Z,98012.00
2019-01-27T06:09:40.684Z,98028.00
2019-01-27T06:12:08.641Z,98007.00
2019-01-27T06:14:49.870Z,97869.00
2019-01-27T06:17:37.360Z,98005.00
2019-01-27T06:22:51.370Z,98010.00
2019-01-27T06:25:19.724Z,97986.00
2019-01-27T06:28:00.151Z,97798.00
2019-01-27T06:30:40.317Z,97817.00
2019-01-27T06:33:41.339Z,97826.00
2019-01-27T06:36:09.204Z,97992.00
2019-01-27T06:38:37.097Z,97986.00
2019-01-27T06:44:47.018Z,97991.00
2019-01-27T06:47:27.415Z,97991.00
2019-01-27T06:50:09.695Z,97993.00
2019-01-27T06:52:57.254Z,98077.00
2019-01-27T06:55:37.670Z,98037.00
2019-01-27T06:58:44.674Z,97808.00
2019-01-27T07:01:34.465Z,97956.00
2019-01-27T07:04:19.646Z,97970.00
2019-01-27T07:07:26.653Z,98076.00
2019-01-27T07:10:27.170Z,97755.00
2019-01-27T07:13:14.827Z,97972.00
2019-01-27T07:18:56.777Z,97963.00
2019-01-27T07:24:43.572Z,97951.00
2019-01-27T07:27:31.178Z,97933.00
2019-01-27T07:30:38.308Z,97940.00
2019-01-27T07:33:38.541Z,97718.00
2019-01-27T07:36:45.837Z,97703.00
2019-01-27T07:39:41.527Z,97855.00
2019-01-27T07:42:48.605Z,98001.00
2019-01-27T07:45:29.246Z,97934.00
2019-01-27T07:48:17.759Z,97935.00
2019-01-27T07:51:05.614Z,97926.00
2019-01-27T07:54:10.102Z,97925.00
2019-01-27T07:57:12.802Z,97992.00
2019-01-27T08:00:01.347Z,97689.00
2019-01-27T08:02:49.205Z,97916.00
2019-01-27T08:05:31.888Z,97915.00
2019-01-27T08:08:38.960Z,97909.00
2019-01-27T08:11:30.188Z,97771.00
2019-01-27T08:14:39.358Z,97723.00
2019-01-27T08:17:41.151Z,97680.00
2019-01-27T08:20:35.311Z,97899.00
2019-01-27T08:23:33.036Z,97743.00
2019-01-27T08:26:23.646Z,97707.00
2019-01-27T08:29:32.604Z,97912.00
2019-01-27T08:32:33.157Z,97917.00
2019-01-27T08:35:34.447Z,97678.00
2019-01-27T08:38:22.030Z,97880.00
2019-01-27T08:41:22.804Z,97788.00
2019-01-27T08:44:29.834Z,97589.00
2019-01-27T08:47:10.391Z,97869.00
2019-01-27T08:49:58.248Z,97862.00
2019-01-27T08:52:40.409Z,97726.00
2019-01-27T08:55:21.269Z,97864.00
2019-01-27T08:58:01.643Z,97533.00
2019-01-27T09:00:35.929Z,97859.00
2019-01-27T09:06:46.019Z,97695.00
2019-01-27T09:09:53.421Z,97853.00
2019-01-27T09:12:40.910Z,97853.00
2019-01-27T09:15:50.755Z,97948.00
2019-01-27T09:18:51.147Z,97628.00
2019-01-27T09:21:39.067Z,97830.00
2019-01-27T09:24:32.932Z,97845.00
2019-01-27T09:27:21.314Z,97845.00
2019-01-27T09:29:57.386Z,97833.00
2019-01-27T09:33:04.451Z,97711.00
2019-01-27T09:35:51.986Z,97841.00
2019-01-27T09:38:59.083Z,97830.00
2019-01-27T09:41:46.739Z,97831.00
2019-01-27T09:44:38.494Z,97609.00
2019-01-27T09:47:33.721Z,97833.00
2019-01-27T09:50:21.474Z,97835.00
2019-01-27T09:53:09.011Z,97820.00
2019-01-27T09:55:58.514Z,97828.00
2019-01-27T09:58:46.306Z,97825.00
2019-01-27T10:01:35.871Z,97824.00
2019-01-27T10:04:44.451Z,97579.00
2019-01-27T10:07:44.903Z,97689.00
2019-01-27T10:10:51.977Z,97741.00
2019-01-27T10:13:47.407Z,97835.00
2019-01-27T10:16:34.937Z,97826.00
2019-01-27T10:19:28.221Z,97570.00
2019-01-27T10:22:35.288Z,97831.00
2019-01-27T10:25:27.751Z,97826.00
2019-01-27T10:28:15.621Z,97831.00
2019-01-27T10:31:22.794Z,97818.00
2019-01-27T10:34:26.795Z,97798.00
2019-01-27T10:37:33.895Z,97848.00
2019-01-27T10:40:21.565Z,97800.00
2019-01-27T10:43:21.960Z,97530.00
2019-01-27T10:46:28.967Z,97610.00
2019-01-27T10:49:29.258Z,97539.00
2019-01-27T10:52:36.766Z,97481.00
2019-01-27T10:55:24.821Z,97807.00
2019-01-27T10:58:18.209Z,97768.00
2019-01-27T11:01:05.764Z,97775.00
2019-01-27T11:04:13.287Z,97533.00
2019-01-27T11:07:20.374Z,97852.00
2019-01-27T11:10:08.092Z,97714.00
2019-01-27T11:13:07.816Z,97748.00
2019-01-27T11:16:03.640Z,97515.00
2019-01-27T11:18:55.723Z,97675.00
2019-01-27T11:22:03.045Z,97512.00
2019-01-27T11:24:50.836Z,97733.00
2019-01-27T11:27:53.335Z,97617.00
2019-01-27T11:30:46.785Z,97441.00
2019-01-27T11:33:46.806Z,97712.00
2019-01-27T11:36:55.156Z,97705.00
2019-01-27T11:39:55.021Z,97436.00
2019-01-27T11:42:47.484Z,97411.00
2019-01-27T11:45:54.735Z,97698.00
2019-01-27T11:48:43.291Z,97564.00
2019-01-27T11:51:38.312Z,97687.00
2019-01-27T11:54:19.442Z,97682.00
2019-01-27T11:57:08.887Z,97682.00
2019-01-27T11:59:38.767Z,97683.00
2019-01-27T12:02:06.719Z,97678.00
2019-01-27T12:04:47.483Z,97672.00
2019-01-27T12:07:34.998Z,97726.00
2019-01-27T12:10:15.420Z,97490.00
2019-01-27T12:12:43.596Z,97645.00
2019-01-27T12:15:16.180Z,97660.00
2019-01-27T12:17:44.156Z,97657.00
2019-01-27T12:20:25.611Z,97381.00
2019-01-27T12:22:53.747Z,97649.00
2019-01-27T12:25:41.348Z,97378.00
2019-01-27T12:28:22.461Z,97641.00
2019-01-27T12:30:50.742Z,97632.00
2019-01-27T12:33:31.412Z,97466.00
2019-01-27T12:36:19.280Z,97723.00
2019-01-27T12:39:04.182Z,97624.00
2019-01-27T12:41:53.765Z,97635.00
2019-01-27T12:44:34.170Z,97635.00
2019-01-27T12:47:22.714Z,97686.00
2019-01-27T12:50:11.684Z,97540.00
2019-01-27T12:53:00.418Z,97638.00
2019-01-27T12:55:40.850Z,97640.00
2019-01-27T12:58:08.974Z,97637.00
2019-01-27T13:00:51.792Z,97630.00
2019-01-27T13:03:21.533Z,97631.00
2019-01-27T13:06:10.109Z,97626.00
2019-01-27T13:08:38.203Z,97629.00
2019-01-27T13:11:19.253Z,97329.00
2019-01-27T13:14:06.803Z,97495.00
2019-01-27T13:16:35.177Z,97624.00
2019-01-27T13:19:03.297Z,97623.00
2019-01-27T13:21:44.098Z,97474.00
2019-01-27T13:24:25.323Z,97368.00
2019-01-27T13:27:13.875Z,97625.00
2019-01-27T13:29:42.222Z,97627.00
2019-01-27T13:32:29.916Z,97545.00
2019-01-27T13:35:10.517Z,97419.00
2019-01-27T13:37:58.299Z,97365.00
2019-01-27T13:40:39.573Z,97613.00
2019-01-27T13:43:07.759Z,97613.00
2019-01-27T13:45:55.547Z,97636.00
2019-01-27T13:48:36.383Z,97498.00
2019-01-27T13:51:24.002Z,97604.00
2019-01-27T13:53:52.052Z,97595.00
2019-01-27T13:56:39.636Z,97611.00
2019-01-27T13:59:24.469Z,97359.00
2019-01-27T14:02:16.944Z,97597.00
2019-01-27T14:05:32.345Z,97599.00
2019-01-27T14:08:12.456Z,97595.00
2019-01-27T14:10:44.710Z,97590.00
2019-01-27T14:20:02.322Z,97603.00
2019-01-27T14:22:44.729Z,97495.00
2019-01-27T14:25:35.072Z,97374.00
2019-01-27T14:28:25.724Z,97359.00
2019-01-27T14:31:19.818Z,97589.00
2019-01-27T14:36:54.302Z,97585.00
2019-01-27T14:39:34.545Z,97596.00
2019-01-27T14:42:04.399Z,97574.00
2019-01-27T14:44:34.683Z,97577.00
2019-01-27T14:47:03.207Z,97587.00
2019-01-27T14:49:32.268Z,97586.00
2019-01-27T14:52:01.663Z,97578.00
2019-01-27T14:54:34.369Z,97438.00
2019-01-27T14:57:05.339Z,97580.00
2019-01-27T14:59:37.337Z,97569.00
2019-01-27T15:02:13.621Z,97568.00
2019-01-27T15:04:42.167Z,97567.00
2019-01-27T15:07:31.079Z,97450.00
2019-01-27T15:10:14.903Z,97374.00
2019-01-27T15:12:43.157Z,97564.00
2019-01-27T15:15:23.649Z,97348.00
2019-01-27T15:21:06.151Z,97567.00
2019-01-27T15:23:48.298Z,97414.00
2019-01-27T15:29:17.517Z,97561.00
2019-01-27T15:32:00.330Z,97561.00
2019-01-27T15:34:48.652Z,97626.00
2019-01-27T15:37:36.304Z,97584.00
2019-01-27T15:40:21.370Z,97548.00
2019-01-27T15:43:09.626Z,97497.00
2019-01-27T15:45:57.481Z,97546.00
2019-01-27T15:48:41.314Z,97546.00
2019-01-27T15:51:29.451Z,97312.00
2019-01-27T15:54:10.349Z,97327.00
2019-01-27T15:57:02.142Z,97360.00
2019-01-27T15:59:47.492Z,97547.00
2019-01-27T16:02:35.519Z,97579.00
2019-01-27T16:05:20.694Z,97546.00
2019-01-27T16:08:01.799Z,97611.00
2019-01-27T16:10:31.085Z,97541.00
2019-01-27T16:12:59.583Z,97538.00
2019-01-27T16:15:31.322Z,97538.00
2019-01-27T16:18:38.371Z,97375.00
2019-01-27T16:21:08.420Z,97586.00
2019-01-27T16:23:49.614Z,97533.00
2019-01-27T16:26:33.855Z,97544.00
2019-01-27T16:29:05.248Z,97541.00
2019-01-27T16:31:59.738Z,97547.00
2019-01-27T16:37:27.601Z,97533.00
2019-01-27T16:40:12.805Z,97539.00
2019-01-27T16:42:58.709Z,97602.00
2019-01-27T16:45:41.605Z,97310.00
2019-01-27T16:48:22.816Z,97534.00
2019-01-27T16:51:03.449Z,97538.00
2019-01-27T16:53:51.771Z,97551.00
2019-01-27T16:56:32.803Z,97461.00
2019-01-27T16:59:22.496Z,97404.00
2019-01-27T17:02:09.292Z,97434.00
2019-01-27T17:04:50.307Z,97533.00
2019-01-27T17:07:18.448Z,97528.00
2019-01-27T17:10:08.869Z,97527.00
2019-01-27T17:12:57.155Z,97529.00
2019-01-27T17:15:26.069Z,97535.00
2019-01-27T17:18:15.664Z,97484.00
2019-01-27T17:20:57.054Z,97431.00
2019-01-27T17:23:45.274Z,97540.00
2019-01-27T17:26:26.083Z,97357.00
2019-01-27T17:29:13.933Z,97546.00
2019-01-27T17:31:54.632Z,97594.00
2019-01-27T17:34:42.455Z,97664.00
2019-01-27T17:37:23.907Z,97589.00
2019-01-27T17:40:13.174Z,97631.00
2019-01-27T17:42:53.623Z,97612.00
2019-01-27T17:45:34.950Z,97632.00
2019-01-27T17:48:03.474Z,97568.00
2019-01-27T17:50:51.165Z,97577.00
2019-01-27T17:56:40.602Z,97624.00
2019-01-27T17:59:40.684Z,97397.00
2019-01-27T18:02:43.969Z,97597.00
2019-01-27T18:05:51.201Z,97457.00
2019-01-27T18:08:39.179Z,97597.00
2019-01-27T18:11:46.390Z,97426.00
2019-01-27T18:14:36.459Z,97605.00
2019-01-27T18:17:18.582Z,97491.00
2019-01-27T18:20:09.168Z,97618.00
2019-01-27T18:22:37.246Z,97615.00
2019-01-27T18:25:07.193Z,97618.00
2019-01-27T18:27:35.461Z,97623.00
2019-01-27T18:33:09.910Z,97622.00
2019-01-27T18:35:40.780Z,97640.00
2019-01-27T18:38:09.328Z,97638.00
2019-01-27T18:40:57.118Z,97646.00
2019-01-27T18:43:38.588Z,97644.00
2019-01-27T18:46:27.906Z,97645.00
2019-01-27T18:49:22.760Z,97661.00
2019-01-27T18:52:12.699Z,97646.00
2019-01-27T18:55:13.445Z,97741.00
2019-01-27T18:58:35.492Z,97682.00
2019-01-27T19:01:50.622Z,97697.00
2019-01-27T19:04:36.633Z,97753.00
2019-01-27T19:07:43.787Z,97529.00
2019-01-27T19:10:34.036Z,97534.00
2019-01-27T19:13:38.124Z,97822.00
2019-01-27T19:17:05.586Z,97727.00
2019-01-27T19:20:06.580Z,97493.00
2019-01-27T19:22:59.964Z,97757.00
2019-01-27T19:25:58.009Z,97770.00
2019-01-27T19:29:05.126Z,97839.00
2019-01-27T19:31:55.415Z,97838.00
2019-01-27T19:35:02.936Z,97602.00
2019-01-27T19:37:50.551Z,97789.00
2019-01-27T19:40:57.636Z,97552.00
2019-01-27T19:43:50.335Z,97687.00
2019-01-27T19:46:57.731Z,97802.00
2019-01-27T19:49:46.316Z,97594.00
2019-01-27T19:52:53.829Z,97616.00
2019-01-27T19:55:45.962Z,97922.00
2019-01-27T19:58:53.300Z,97711.00
2019-01-27T20:01:28.491Z,97838.00
2019-01-27T20:07:26.512Z,97851.00
2019-01-27T20:10:33.933Z,97819.00
2019-01-27T20:13:24.971Z,97652.00
2019-01-27T20:16:32.122Z,97923.00
2019-01-27T20:19:19.871Z,97880.00
2019-01-27T20:22:28.037Z,97649.00
2019-01-27T20:25:16.022Z,97908.00
2019-01-27T20:28:23.325Z,97795.00
2019-01-27T20:31:11.080Z,97910.00
2019-01-27T20:34:10.563Z,97925.00
2019-01-27T20:36:58.327Z,97937.00
2019-01-27T20:39:46.669Z,97935.00
2019-01-27T20:42:35.897Z,97952.00
2019-01-27T20:45:30.239Z,97944.00
2019-01-27T20:48:37.399Z,97954.00
2019-01-27T20:51:25.309Z,97955.00
2019-01-27T20:54:02.227Z,97968.00
2019-01-27T20:56:57.002Z,98005.00
2019-01-27T20:59:44.795Z,97973.00
2019-01-27T21:02:45.880Z,97978.00
2019-01-27T21:05:56.011Z,98098.00
2019-01-27T21:08:55.878Z,97983.00
2019-01-27T21:12:03.594Z,97972.00
2019-01-27T21:15:03.964Z,97812.00
2019-01-27T21:18:11.607Z,97838.00
2019-01-27T21:20:53.800Z,97941.00
2019-01-27T21:23:41.497Z,97834.00
2019-01-27T21:26:09.673Z,98018.00
2019-01-27T21:28:38.247Z,98023.00
2019-01-27T21:31:20.354Z,98029.00
2019-01-27T21:34:08.021Z,98023.00
2019-01-27T21:36:36.062Z,98017.00
2019-01-27T21:39:20.811Z,98058.00
2019-01-27T21:41:48.913Z,98028.00
2019-01-27T21:44:36.727Z,98072.00
2019-01-27T21:47:20.851Z,97927.00
2019-01-27T21:50:11.728Z,98009.00
2019-01-27T21:52:52.465Z,98043.00
2019-01-27T21:55:40.048Z,98120.00
2019-01-27T21:58:21.634Z,98058.00
2019-01-27T22:00:49.708Z,98056.00
2019-01-27T22:03:17.694Z,98065.00
2019-01-27T22:06:05.942Z,98150.00
2019-01-27T22:08:35.437Z,98071.00
2019-01-27T22:11:03.749Z,98060.00
2019-01-27T22:13:31.807Z,98061.00
2019-01-27T22:15:59.920Z,98076.00
2019-01-27T22:21:15.907Z,98068.00
2019-01-27T22:24:03.895Z,97937.00
2019-01-27T22:26:49.943Z,98089.00
2019-01-27T22:29:31.110Z,98035.00
2019-01-27T22:32:12.053Z,98084.00
2019-01-27T22:35:01.838Z,97915.00
2019-01-27T22:37:32.745Z,98098.00
2019-01-27T22:40:13.779Z,97830.00
2019-01-27T22:43:02.188Z,98074.00
2019-01-27T22:45:43.641Z,98111.00
2019-01-27T22:48:31.203Z,98108.00
2019-01-27T22:51:11.439Z,98128.00
2019-01-27T22:53:58.877Z,98121.00
2019-01-27T22:56:40.232Z,98168.00
2019-01-27T22:59:28.240Z,98134.00
2019-01-27T23:02:08.891Z,97858.00
2019-01-27T23:04:37.474Z,98132.00
2019-01-27T23:07:18.548Z,97874.00
2019-01-27T23:10:06.048Z,98141.00
2019-01-27T23:12:46.678Z,98167.00
2019-01-27T23:15:14.862Z,98153.00
2019-01-27T23:17:55.274Z,98014.00
2019-01-27T23:20:44.178Z,98281.00
2019-01-27T23:23:12.226Z,98152.00
2019-01-27T23:25:40.272Z,98153.00
2019-01-27T23:28:21.636Z,97918.00
2019-01-27T23:30:49.861Z,98169.00
2019-01-27T23:33:17.948Z,98166.00
2019-01-27T23:36:05.414Z,98172.00
2019-01-27T23:38:45.818Z,98176.00
2019-01-27T23:41:26.997Z,98185.00
2019-01-27T23:44:08.276Z,98173.00
2019-01-27T23:46:48.684Z,98182.00
2019-01-27T23:49:36.132Z,97937.00
2019-01-27T23:52:16.911Z,98196.00
2019-01-27T23:55:04.535Z,98172.00
2019-01-27T23:57:44.913Z,98171.00
